createdAt,value
2022-08-03T00:20:00.485Z,98420.31
2022-08-03T00:40:03.571Z,98425.38
2022-08-03T01:00:08.269Z,98421.91
2022-08-03T01:20:10.950Z,98407.41
2022-08-03T01:40:14.354Z,98416.72
2022-08-03T02:00:16.827Z,98430.66
2022-08-03T02:20:22.420Z,98422.41
2022-08-03T02:40:24.916Z,98416.69
2022-08-03T03:00:28.658Z,98417.00
2022-08-03T03:20:31.534Z,98415.78
2022-08-03T03:40:34.272Z,98420.81
2022-08-03T04:00:36.910Z,98432.13
2022-08-03T04:20:39.434Z,98444.75
2022-08-03T04:40:42.145Z,98449.66
2022-08-03T05:00:46.565Z,98466.75
2022-08-03T05:20:49.824Z,98457.62
2022-08-03T05:40:57.497Z,98461.00
2022-08-03T06:01:15.331Z,98468.41
2022-08-03T06:21:18.060Z,98469.75
2022-08-03T06:41:20.631Z,98467.41
2022-08-03T07:01:23.312Z,98476.03
2022-08-03T07:21:25.775Z,98489.91
2022-08-03T07:41:28.479Z,98479.47
2022-08-03T08:01:31.327Z,98473.03
2022-08-03T08:21:53.394Z,98482.66
2022-08-03T08:41:56.629Z,98477.75
2022-08-03T09:02:00.010Z,98484.06
2022-08-03T09:22:02.716Z,98493.16
2022-08-03T09:42:05.536Z,98491.16
2022-08-03T10:02:08.073Z,98473.59
2022-08-03T10:22:10.778Z,98470.75
2022-08-03T10:42:14.699Z,98461.69
2022-08-03T11:02:17.755Z,98452.03
2022-08-03T11:22:20.426Z,98436.41
2022-08-03T11:42:23.071Z,98416.37
2022-08-03T12:02:25.647Z,98417.28
2022-08-03T12:22:28.363Z,98400.37
2022-08-03T12:42:31.068Z,98385.50
2022-08-03T13:02:33.844Z,98369.53
2022-08-03T13:22:37.141Z,98353.63
2022-08-03T13:42:39.678Z,98352.22
2022-08-03T14:02:42.464Z,98346.37
2022-08-03T14:22:45.200Z,98343.09
2022-08-03T14:42:47.899Z,98330.41
2022-08-03T15:02:51.461Z,98319.50
2022-08-03T15:22:54.498Z,98300.59
2022-08-03T15:42:57.140Z,98298.06
2022-08-03T16:03:00.584Z,98297.59
2022-08-03T16:23:11.048Z,98281.81
2022-08-03T16:43:18.898Z,98269.59
2022-08-03T17:03:24.218Z,98252.84
2022-08-03T17:23:35.255Z,98260.25
2022-08-03T17:44:13.420Z,98267.34
2022-08-03T18:04:00.816Z,98286.34
2022-08-03T18:24:03.338Z,98312.19
2022-08-03T18:44:08.612Z,98312.81
2022-08-03T19:04:12.361Z,98330.03
2022-08-03T19:24:15.004Z,98345.41
2022-08-03T19:44:20.140Z,98362.69
2022-08-03T20:04:23.342Z,98365.13
2022-08-03T20:24:27.226Z,98362.37
2022-08-03T20:44:30.701Z,98359.03
2022-08-03T21:04:33.437Z,98353.38
2022-08-03T21:24:36.245Z,98367.06
2022-08-03T21:44:38.954Z,98374.16
2022-08-03T22:04:53.191Z,98380.31
2022-08-03T22:24:59.617Z,98382.72
2022-08-03T22:45:02.253Z,98383.59
2022-08-03T23:05:04.970Z,98381.28
2022-08-03T23:25:13.702Z,98376.19
2022-08-03T23:45:16.437Z,98369.41
